createdAt,value
2022-12-06T00:00:34.676Z,19.55
2022-12-06T00:03:05.349Z,22.10
2022-12-06T00:05:41.788Z,20.40
2022-12-06T00:08:13.908Z,19.45
2022-12-06T00:10:45.341Z,19.77
2022-12-06T00:13:16.051Z,19.42
2022-12-06T00:15:49.571Z,18.23
2022-12-06T00:18:20.984Z,20.90
2022-12-06T00:20:51.428Z,19.67
2022-12-06T00:23:23.534Z,19.80
2022-12-06T00:25:54.833Z,20.70
2022-12-06T00:28:26.978Z,16.62
2022-12-06T00:31:06.415Z,17.73
2022-12-06T00:33:37.975Z,18.55
2022-12-06T00:36:12.822Z,18.33
2022-12-06T00:38:45.207Z,18.15
2022-12-06T00:41:18.240Z,16.10
2022-12-06T00:43:51.766Z,18.80
2022-12-06T00:46:25.865Z,18.42
2022-12-06T00:48:59.557Z,17.80
2022-12-06T00:51:31.805Z,20.10
2022-12-06T00:54:02.884Z,18.33
2022-12-06T00:56:35.494Z,23.70
2022-12-06T00:59:08.259Z,19.82
2022-12-06T01:01:40.572Z,20.57
2022-12-06T01:04:12.712Z,22.03
2022-12-06T01:06:43.812Z,20.10
2022-12-06T01:09:14.598Z,20.27
2022-12-06T01:11:45.167Z,19.32
2022-12-06T01:14:15.663Z,20.07
2022-12-06T01:16:46.303Z,22.13
2022-12-06T01:19:17.041Z,19.80
2022-12-06T01:21:49.064Z,20.97
2022-12-06T01:24:19.591Z,21.27
2022-12-06T01:26:50.054Z,21.27
2022-12-06T01:29:23.896Z,18.95
2022-12-06T01:31:54.381Z,20.27
2022-12-06T01:34:25.307Z,18.63
2022-12-06T01:36:55.845Z,21.37
2022-12-06T01:39:26.374Z,20.07
2022-12-06T01:41:56.887Z,16.47
2022-12-06T01:44:42.882Z,20.23
2022-12-06T01:47:18.875Z,18.50
2022-12-06T01:49:52.380Z,18.67
2022-12-06T01:52:25.952Z,19.33
2022-12-06T01:54:57.276Z,17.95
2022-12-06T01:57:30.786Z,17.60
2022-12-06T02:00:02.905Z,16.50
2022-12-06T02:02:35.063Z,14.53
2022-12-06T02:05:06.234Z,14.43
2022-12-06T02:07:37.565Z,15.33
2022-12-06T02:10:09.737Z,15.60
2022-12-06T02:12:44.072Z,16.50
2022-12-06T02:15:14.854Z,14.23
2022-12-06T02:17:54.397Z,13.77
2022-12-06T02:20:28.701Z,16.13
2022-12-06T02:23:08.029Z,16.77
2022-12-06T02:25:45.778Z,16.27
2022-12-06T02:28:52.358Z,19.40
2022-12-06T02:31:42.486Z,18.17
2022-12-06T02:34:25.143Z,20.80
2022-12-06T02:37:02.172Z,18.73
2022-12-06T02:39:50.997Z,18.93
2022-12-06T02:42:31.111Z,20.27
2022-12-06T02:45:06.550Z,22.00
2022-12-06T02:47:40.429Z,21.82
2022-12-06T02:50:13.926Z,22.13
2022-12-06T02:52:47.478Z,23.87
2022-12-06T02:55:19.737Z,22.02
2022-12-06T02:57:57.497Z,22.17
2022-12-06T03:00:46.175Z,24.25
2022-12-06T03:03:43.096Z,22.58
2022-12-06T03:06:25.602Z,23.63
2022-12-06T03:09:08.360Z,23.47
2022-12-06T03:12:04.321Z,24.23
2022-12-06T03:14:40.525Z,24.98
2022-12-06T03:17:16.882Z,26.00
2022-12-06T03:19:50.446Z,23.03
2022-12-06T03:22:23.987Z,23.60
2022-12-06T03:24:57.771Z,22.70
2022-12-06T03:27:29.332Z,20.57
2022-12-06T03:30:03.949Z,18.87
2022-12-06T03:32:39.064Z,14.67
2022-12-06T03:35:14.101Z,16.10
2022-12-06T03:37:47.952Z,14.00
2022-12-06T03:40:27.441Z,15.73
2022-12-06T03:42:58.868Z,11.93
2022-12-06T03:45:39.299Z,12.30
2022-12-06T03:48:15.630Z,12.85
2022-12-06T03:50:58.357Z,13.58
2022-12-06T03:53:28.476Z,12.97
2022-12-06T03:56:00.628Z,14.27
2022-12-06T03:58:32.773Z,13.75
2022-12-06T04:01:04.879Z,14.10
2022-12-06T04:03:35.991Z,14.55
2022-12-06T04:06:08.137Z,13.28
2022-12-06T04:08:39.315Z,14.80
2022-12-06T04:11:09.752Z,13.58
2022-12-06T04:13:41.017Z,13.00
2022-12-06T04:16:29.765Z,13.03
2022-12-06T04:19:00.272Z,13.00
2022-12-06T04:21:35.375Z,14.95
2022-12-06T04:24:06.932Z,14.78
2022-12-06T04:26:37.353Z,15.58
2022-12-06T04:29:26.216Z,16.93
2022-12-06T04:32:14.731Z,15.70
2022-12-06T04:35:03.166Z,16.23
2022-12-06T04:37:51.654Z,14.70
2022-12-06T04:40:22.736Z,15.17
2022-12-06T04:43:11.468Z,15.00
2022-12-06T04:45:42.651Z,16.30
2022-12-06T04:48:14.946Z,14.80
2022-12-06T04:50:50.384Z,13.98
2022-12-06T04:53:20.817Z,11.97
2022-12-06T04:55:55.723Z,12.80
2022-12-06T04:58:26.294Z,11.67
2022-12-06T05:00:58.533Z,12.88
2022-12-06T05:03:30.639Z,12.13
2022-12-06T05:06:02.824Z,10.90
2022-12-06T05:08:33.426Z,12.37
2022-12-06T05:11:04.168Z,11.03
2022-12-06T05:13:36.705Z,11.53
2022-12-06T05:16:08.521Z,12.90
2022-12-06T05:18:40.529Z,9.90
2022-12-06T05:21:16.996Z,10.53
2022-12-06T05:23:48.253Z,12.13
2022-12-06T05:26:20.902Z,14.43
2022-12-06T05:28:52.424Z,14.38
2022-12-06T05:31:23.415Z,16.25
2022-12-06T05:34:03.637Z,13.97
2022-12-06T05:36:34.262Z,12.47
2022-12-06T05:39:04.942Z,10.40
2022-12-06T05:41:35.573Z,13.33
2022-12-06T05:44:06.373Z,13.13
2022-12-06T05:46:37.342Z,16.20
2022-12-06T05:49:07.974Z,12.53
2022-12-06T05:51:40.112Z,12.07
2022-12-06T05:54:10.604Z,11.83
2022-12-06T05:56:41.215Z,14.53
2022-12-06T05:59:12.514Z,13.67
2022-12-06T06:01:43.312Z,13.90
2022-12-06T06:04:13.743Z,14.75
2022-12-06T06:06:44.311Z,17.80
2022-12-06T06:09:15.071Z,18.87
2022-12-06T06:11:45.753Z,29.15
2022-12-06T06:14:17.538Z,24.57
2022-12-06T06:16:49.314Z,17.05
2022-12-06T06:19:21.965Z,15.03
2022-12-06T06:21:52.790Z,29.83
2022-12-06T06:24:24.364Z,19.20
2022-12-06T06:26:54.903Z,28.30
2022-12-06T06:29:25.421Z,20.50
2022-12-06T06:31:56.042Z,13.98
2022-12-06T06:34:27.465Z,11.88
2022-12-06T06:37:15.577Z,10.32
2022-12-06T06:39:45.987Z,11.53
2022-12-06T06:42:18.053Z,10.40
2022-12-06T06:44:48.596Z,11.63
2022-12-06T06:47:20.354Z,10.87
2022-12-06T06:49:51.057Z,10.03
2022-12-06T06:52:21.700Z,11.20
2022-12-06T06:54:53.109Z,10.90
2022-12-06T06:57:23.645Z,11.22
2022-12-06T06:59:54.033Z,9.28
2022-12-06T07:02:25.520Z,11.22
2022-12-06T07:04:56.127Z,10.50
2022-12-06T07:07:28.735Z,12.07
2022-12-06T07:09:59.373Z,10.60
2022-12-06T07:12:30.052Z,10.23
2022-12-06T07:15:06.432Z,10.33
2022-12-06T07:17:37.155Z,10.97
2022-12-06T07:20:08.877Z,9.73
2022-12-06T07:22:39.530Z,12.17
2022-12-06T07:25:10.998Z,10.53
2022-12-06T07:27:42.158Z,10.40
2022-12-06T07:30:17.183Z,10.75
2022-12-06T07:32:47.066Z,10.60
2022-12-06T07:35:17.757Z,11.23
2022-12-06T07:37:48.526Z,11.37
2022-12-06T07:40:30.699Z,10.80
2022-12-06T07:43:10.770Z,21.48
2022-12-06T07:45:41.476Z,12.15
2022-12-06T07:48:11.977Z,11.18
2022-12-06T07:50:42.624Z,10.77
2022-12-06T07:53:14.849Z,8.63
2022-12-06T07:55:45.377Z,10.03
2022-12-06T07:58:18.986Z,11.03
2022-12-06T08:00:50.150Z,9.40
2022-12-06T08:03:21.359Z,10.33
2022-12-06T08:05:56.758Z,8.40
2022-12-06T08:08:29.024Z,8.27
2022-12-06T08:11:04.630Z,10.48
2022-12-06T08:13:38.746Z,10.78
2022-12-06T08:16:13.725Z,9.17
2022-12-06T08:18:45.137Z,10.13
2022-12-06T08:21:16.634Z,11.37
2022-12-06T08:23:49.711Z,13.00
2022-12-06T08:26:21.916Z,16.43
2022-12-06T08:28:53.079Z,10.87
2022-12-06T08:31:25.205Z,11.93
2022-12-06T08:33:58.972Z,10.15
2022-12-06T08:36:30.117Z,9.30
2022-12-06T08:39:02.065Z,7.47
2022-12-06T08:41:50.540Z,8.90
2022-12-06T08:44:23.579Z,7.97
2022-12-06T08:46:54.523Z,8.07
2022-12-06T08:49:27.576Z,8.83
2022-12-06T08:52:00.504Z,8.07
2022-12-06T08:54:31.256Z,7.90
2022-12-06T08:57:02.799Z,8.23
2022-12-06T08:59:33.336Z,7.00
2022-12-06T09:02:05.389Z,7.13
2022-12-06T09:04:36.136Z,9.40
2022-12-06T09:07:11.458Z,7.23
2022-12-06T09:09:39.842Z,9.10
2022-12-06T09:12:10.423Z,9.25
2022-12-06T09:14:41.827Z,9.13
2022-12-06T09:17:12.850Z,11.13
2022-12-06T09:19:43.384Z,9.90
2022-12-06T09:22:16.882Z,9.03
2022-12-06T09:24:47.296Z,11.00
2022-12-06T09:27:20.839Z,11.18
2022-12-06T09:29:51.534Z,10.90
2022-12-06T09:32:23.635Z,11.10
2022-12-06T09:34:55.573Z,11.97
2022-12-06T09:37:28.694Z,7.73
2022-12-06T09:40:03.819Z,8.20
2022-12-06T09:42:49.621Z,7.30
2022-12-06T09:45:31.708Z,7.47
2022-12-06T09:48:23.445Z,8.40
2022-12-06T09:50:59.916Z,7.10
2022-12-06T09:53:40.510Z,9.40
2022-12-06T09:56:23.702Z,8.30
2022-12-06T09:59:32.460Z,6.97
2022-12-06T10:02:36.612Z,8.20
2022-12-06T10:05:50.527Z,6.72
2022-12-06T10:08:45.333Z,8.40
2022-12-06T10:11:57.889Z,9.18
2022-12-06T10:14:39.865Z,7.53
2022-12-06T10:17:40.740Z,7.90
2022-12-06T10:20:36.255Z,7.40
2022-12-06T10:23:22.493Z,8.93
2022-12-06T10:26:14.726Z,9.67
2022-12-06T10:28:55.088Z,9.10
2022-12-06T10:31:37.570Z,7.90
2022-12-06T10:34:15.668Z,9.33
2022-12-06T10:36:53.015Z,9.87
2022-12-06T10:39:26.605Z,9.53
2022-12-06T10:42:08.943Z,10.67
2022-12-06T10:44:49.948Z,10.37
2022-12-06T10:47:30.742Z,10.08
2022-12-06T10:50:09.923Z,10.82
2022-12-06T10:52:43.420Z,12.30
2022-12-06T10:55:19.978Z,12.73
2022-12-06T10:58:09.825Z,10.80
2022-12-06T11:01:01.116Z,11.00
2022-12-06T11:03:36.000Z,13.57
2022-12-06T11:06:19.374Z,13.47
2022-12-06T11:08:57.300Z,18.50
2022-12-06T11:11:37.751Z,15.47
2022-12-06T11:14:25.236Z,18.50
2022-12-06T11:17:01.530Z,19.65
2022-12-06T11:19:39.484Z,17.27
2022-12-06T11:22:37.287Z,17.07
2022-12-06T11:25:19.794Z,14.03
2022-12-06T11:28:02.374Z,11.65
2022-12-06T11:30:35.421Z,10.55
2022-12-06T11:33:07.992Z,11.83
2022-12-06T11:35:40.131Z,7.62
2022-12-06T11:38:12.423Z,11.53
2022-12-06T11:40:54.206Z,8.75
2022-12-06T11:43:26.682Z,10.38
2022-12-06T11:45:59.502Z,9.85
2022-12-06T11:48:33.610Z,10.95
2022-12-06T11:51:05.601Z,10.57
2022-12-06T11:53:43.979Z,9.70
2022-12-06T11:56:26.657Z,9.73
2022-12-06T11:59:05.694Z,9.63
2022-12-06T12:01:45.283Z,7.20
2022-12-06T12:04:38.169Z,9.18
2022-12-06T12:07:11.889Z,8.68
2022-12-06T12:10:03.711Z,8.00
2022-12-06T12:12:50.575Z,6.95
2022-12-06T12:15:24.526Z,6.90
2022-12-06T12:17:58.660Z,8.73
2022-12-06T12:20:40.857Z,7.37
2022-12-06T12:23:26.553Z,6.37
2022-12-06T12:26:05.830Z,7.47
2022-12-06T12:28:38.589Z,9.45
2022-12-06T12:31:21.423Z,8.83
2022-12-06T12:33:55.251Z,6.87
2022-12-06T12:36:30.252Z,8.10
2022-12-06T12:39:02.519Z,7.85
2022-12-06T12:41:43.245Z,7.33
2022-12-06T12:44:37.075Z,7.70
2022-12-06T12:47:05.141Z,7.23
2022-12-06T12:49:39.558Z,7.08
2022-12-06T12:52:35.340Z,7.70
2022-12-06T12:55:27.115Z,5.60
2022-12-06T12:58:02.249Z,6.33
2022-12-06T13:00:40.374Z,5.90
2022-12-06T13:03:42.802Z,5.50
2022-12-06T13:05:52.941Z,7.03
2022-12-06T13:08:27.939Z,6.25
2022-12-06T13:11:01.589Z,6.03
2022-12-06T13:13:38.057Z,6.03
2022-12-06T13:16:11.806Z,6.07
2022-12-06T13:18:54.647Z,6.93
2022-12-06T13:21:29.772Z,6.08
2022-12-06T13:24:12.345Z,6.50
2022-12-06T13:27:01.016Z,7.20
2022-12-06T13:29:43.826Z,7.77
2022-12-06T13:32:19.313Z,6.55
2022-12-06T13:34:56.148Z,6.40
2022-12-06T13:37:29.337Z,6.85
2022-12-06T13:40:05.749Z,7.13
2022-12-06T13:42:40.562Z,6.92
2022-12-06T13:45:15.622Z,6.37
2022-12-06T13:47:55.365Z,7.33
2022-12-06T13:50:30.468Z,10.80
2022-12-06T13:53:04.905Z,7.37
2022-12-06T13:55:42.255Z,7.28
2022-12-06T13:58:19.333Z,7.12
2022-12-06T14:00:51.500Z,7.92
2022-12-06T14:03:26.687Z,8.53
2022-12-06T14:06:12.020Z,8.13
2022-12-06T14:08:47.028Z,7.05
2022-12-06T14:11:21.280Z,7.23
2022-12-06T14:14:00.477Z,7.92
2022-12-06T14:16:37.854Z,8.13
2022-12-06T14:19:24.221Z,7.58
2022-12-06T14:21:58.614Z,9.75
2022-12-06T14:24:44.282Z,8.85
2022-12-06T14:27:21.550Z,8.58
2022-12-06T14:30:05.593Z,7.90
2022-12-06T14:32:42.495Z,13.00
2022-12-06T14:35:18.884Z,8.68
2022-12-06T14:38:01.925Z,8.87
2022-12-06T14:41:02.174Z,7.15
2022-12-06T14:43:37.018Z,7.93
2022-12-06T14:46:10.530Z,8.53
2022-12-06T14:49:00.005Z,8.45
2022-12-06T14:51:41.089Z,9.38
2022-12-06T14:54:43.413Z,8.20
2022-12-06T14:57:33.941Z,8.13
2022-12-06T15:00:20.914Z,8.88
2022-12-06T15:02:45.559Z,7.85
2022-12-06T15:05:37.235Z,10.67
2022-12-06T15:08:30.374Z,9.13
2022-12-06T15:11:03.791Z,9.63
2022-12-06T15:13:38.373Z,9.23
2022-12-06T15:16:11.943Z,9.90
2022-12-06T15:18:49.966Z,9.93
2022-12-06T15:21:21.046Z,8.95
2022-12-06T15:23:53.171Z,9.18
2022-12-06T15:26:25.845Z,9.13
2022-12-06T15:28:57.804Z,8.48
2022-12-06T15:31:33.082Z,10.07
2022-12-06T15:34:05.313Z,7.37
2022-12-06T15:36:37.179Z,9.23
2022-12-06T15:39:08.958Z,8.83
2022-12-06T15:41:42.278Z,8.68
2022-12-06T15:44:20.851Z,9.03
2022-12-06T15:46:52.453Z,8.73
2022-12-06T15:49:28.653Z,10.07
2022-12-06T15:52:01.551Z,10.25
2022-12-06T15:54:34.302Z,10.87
2022-12-06T15:57:04.780Z,9.08
2022-12-06T15:59:35.543Z,9.53
2022-12-06T16:02:12.499Z,8.20
2022-12-06T16:04:43.554Z,7.97
2022-12-06T16:07:16.647Z,11.30
2022-12-06T16:09:50.785Z,10.37
2022-12-06T16:12:22.847Z,9.23
2022-12-06T16:14:54.409Z,9.77
2022-12-06T16:17:28.476Z,10.47
2022-12-06T16:20:18.275Z,10.60
2022-12-06T16:23:06.497Z,12.23
2022-12-06T16:25:38.686Z,11.30
2022-12-06T16:28:11.142Z,12.88
2022-12-06T16:30:44.718Z,15.60
2022-12-06T16:33:24.586Z,11.17
2022-12-06T16:35:57.523Z,12.07
2022-12-06T16:38:30.302Z,11.50
2022-12-06T16:41:05.290Z,12.53
2022-12-06T16:43:37.905Z,11.33
2022-12-06T16:46:26.171Z,10.60
2022-12-06T16:49:29.337Z,8.63
2022-12-06T16:51:37.837Z,9.47
2022-12-06T16:54:08.713Z,9.33
2022-12-06T16:56:41.783Z,8.20
2022-12-06T16:59:19.077Z,9.80
2022-12-06T17:01:55.941Z,10.43
2022-12-06T17:04:55.055Z,9.43
2022-12-06T17:07:29.335Z,10.27
2022-12-06T17:10:00.716Z,10.63
2022-12-06T17:12:33.004Z,9.58
2022-12-06T17:15:04.653Z,8.98
2022-12-06T17:17:36.346Z,10.33
2022-12-06T17:20:09.688Z,8.73
2022-12-06T17:22:42.824Z,8.47
2022-12-06T17:25:17.270Z,10.73
2022-12-06T17:27:49.523Z,9.67
2022-12-06T17:30:21.749Z,8.50
2022-12-06T17:32:52.390Z,9.50
2022-12-06T17:35:25.712Z,7.97
2022-12-06T17:38:03.887Z,8.73
2022-12-06T17:40:34.737Z,8.17
2022-12-06T17:43:06.494Z,9.87
2022-12-06T17:45:38.094Z,9.95
2022-12-06T17:48:09.717Z,10.10
2022-12-06T17:50:42.694Z,9.30
2022-12-06T17:53:13.351Z,10.75
2022-12-06T17:55:43.802Z,11.93
2022-12-06T17:58:14.282Z,11.50
2022-12-06T18:00:46.376Z,13.63
2022-12-06T18:03:20.485Z,12.07
2022-12-06T18:05:54.872Z,13.45
2022-12-06T18:08:25.388Z,13.77
2022-12-06T18:11:03.151Z,12.03
2022-12-06T18:13:36.182Z,12.78
2022-12-06T18:16:24.936Z,15.90
2022-12-06T18:18:59.233Z,15.37
2022-12-06T18:21:39.763Z,17.63
2022-12-06T18:24:21.488Z,15.32
2022-12-06T18:26:45.980Z,13.47
2022-12-06T18:29:20.520Z,16.77
2022-12-06T18:31:51.495Z,17.48
2022-12-06T18:34:23.436Z,17.53
2022-12-06T18:36:56.807Z,16.73
2022-12-06T18:39:29.248Z,14.10
2022-12-06T18:42:02.056Z,18.13
2022-12-06T18:44:32.918Z,16.47
2022-12-06T18:47:03.945Z,16.17
2022-12-06T18:49:34.435Z,16.47
2022-12-06T18:52:06.344Z,15.17
2022-12-06T18:54:37.072Z,17.55
2022-12-06T18:57:08.236Z,16.63
2022-12-06T18:59:38.800Z,15.17
2022-12-06T19:02:11.486Z,17.63
2022-12-06T19:04:42.464Z,17.37
2022-12-06T19:07:14.545Z,17.30
2022-12-06T19:09:45.067Z,15.98
2022-12-06T19:12:16.764Z,18.53
2022-12-06T19:14:49.022Z,18.98
2022-12-06T19:17:19.587Z,17.85
2022-12-06T19:19:52.152Z,17.53
2022-12-06T19:22:22.612Z,18.17
2022-12-06T19:24:56.546Z,19.15
2022-12-06T19:27:27.090Z,15.27
2022-12-06T19:29:59.328Z,15.83
2022-12-06T19:32:29.829Z,18.65
2022-12-06T19:35:08.196Z,17.02
2022-12-06T19:37:36.968Z,15.77
2022-12-06T19:40:10.941Z,15.05
2022-12-06T19:42:59.390Z,15.97
2022-12-06T19:45:30.040Z,14.85
2022-12-06T19:48:02.081Z,16.12
2022-12-06T19:50:36.232Z,21.00
2022-12-06T19:53:06.750Z,29.25
2022-12-06T19:55:37.534Z,30.17
2022-12-06T19:58:10.964Z,26.55
2022-12-06T20:00:44.638Z,25.50
2022-12-06T20:03:16.013Z,27.50
2022-12-06T20:05:47.663Z,19.90
2022-12-06T20:08:19.472Z,18.65
2022-12-06T20:10:52.623Z,17.92
2022-12-06T20:13:26.322Z,20.80
2022-12-06T20:16:02.191Z,22.27
2022-12-06T20:18:33.367Z,20.65
2022-12-06T20:21:05.157Z,22.60
2022-12-06T20:23:35.679Z,24.25
2022-12-06T20:26:06.467Z,24.07
2022-12-06T20:28:37.044Z,19.73
2022-12-06T20:31:19.617Z,19.43
2022-12-06T20:33:50.624Z,19.52
2022-12-06T20:36:23.626Z,17.17
2022-12-06T20:38:55.239Z,20.30
2022-12-06T20:41:30.863Z,18.75
2022-12-06T20:44:03.529Z,14.35
2022-12-06T20:46:36.571Z,19.55
2022-12-06T20:49:09.617Z,16.35
2022-12-06T20:51:40.609Z,19.90
2022-12-06T20:54:12.476Z,17.92
2022-12-06T20:56:44.202Z,18.30
2022-12-06T20:59:14.837Z,13.78
2022-12-06T21:01:45.523Z,17.90
2022-12-06T21:04:18.177Z,15.40
2022-12-06T21:06:48.733Z,16.17
2022-12-06T21:09:19.741Z,17.00
2022-12-06T21:11:50.991Z,15.30
2022-12-06T21:14:22.067Z,12.83
2022-12-06T21:16:52.898Z,13.65
2022-12-06T21:19:24.936Z,12.43
2022-12-06T21:21:58.567Z,12.88
2022-12-06T21:24:30.143Z,11.80
2022-12-06T21:27:02.120Z,11.40
2022-12-06T21:29:34.905Z,12.33
2022-12-06T21:32:05.699Z,12.13
2022-12-06T21:34:44.479Z,10.97
2022-12-06T21:37:11.286Z,11.83
2022-12-06T21:39:43.441Z,10.03
2022-12-06T21:42:19.532Z,8.40
2022-12-06T21:44:51.630Z,8.03
2022-12-06T21:47:22.110Z,8.70
2022-12-06T21:49:52.557Z,6.42
2022-12-06T21:52:24.827Z,8.77
2022-12-06T21:54:57.765Z,8.73
2022-12-06T21:57:28.135Z,6.43
2022-12-06T21:59:58.724Z,7.58
2022-12-06T22:02:30.777Z,6.73
2022-12-06T22:05:03.439Z,6.40
2022-12-06T22:07:34.640Z,7.07
2022-12-06T22:10:07.609Z,7.30
2022-12-06T22:12:39.537Z,6.62
2022-12-06T22:15:12.315Z,4.40
2022-12-06T22:17:42.680Z,6.08
2022-12-06T22:20:13.269Z,5.93
2022-12-06T22:22:43.955Z,5.53
2022-12-06T22:25:19.444Z,5.45
2022-12-06T22:27:47.988Z,6.87
2022-12-06T22:30:21.271Z,5.22
2022-12-06T22:32:55.362Z,5.58
2022-12-06T22:35:26.235Z,5.67
2022-12-06T22:37:58.132Z,5.05
2022-12-06T22:40:28.701Z,5.17
2022-12-06T22:42:59.196Z,6.03
2022-12-06T22:45:29.691Z,6.53
2022-12-06T22:48:01.187Z,10.65
2022-12-06T22:50:33.248Z,7.67
2022-12-06T22:53:05.001Z,9.33
2022-12-06T22:55:35.747Z,14.20
2022-12-06T22:58:06.245Z,16.87
2022-12-06T23:00:38.730Z,13.38
2022-12-06T23:03:09.227Z,16.57
2022-12-06T23:05:39.917Z,15.58
2022-12-06T23:08:10.432Z,14.10
2022-12-06T23:10:41.869Z,13.33
2022-12-06T23:13:12.439Z,17.23
2022-12-06T23:15:43.013Z,16.83
2022-12-06T23:18:16.199Z,17.43
2022-12-06T23:20:47.056Z,15.75
2022-12-06T23:23:17.545Z,15.23
2022-12-06T23:25:48.183Z,15.67
2022-12-06T23:28:20.215Z,17.07
2022-12-06T23:30:52.296Z,18.63
2022-12-06T23:33:23.094Z,17.47
2022-12-06T23:35:57.356Z,18.80
2022-12-06T23:38:27.816Z,15.93
2022-12-06T23:41:07.143Z,14.33
2022-12-06T23:43:39.412Z,14.53
2022-12-06T23:46:13.384Z,15.00
2022-12-06T23:48:46.288Z,14.30
2022-12-06T23:51:20.214Z,13.20
2022-12-06T23:53:59.678Z,13.83
2022-12-06T23:56:33.252Z,15.23
2022-12-06T23:59:06.910Z,15.50
